sensor_id;sensor_type;location;lat;lon;timestamp;pressure;altitude;pressure_sealevel;temperature;humidity
41044;BME280;51680;49.806;18.774;2024-02-26T00:02:38;96302.25;;;8.73;70.20
41044;BME280;51680;49.806;18.774;2024-02-26T00:05:40;96307.47;;;8.73;70.18
41044;BME280;51680;49.806;18.774;2024-02-26T00:08:42;96304.28;;;8.70;70.26
41044;BME280;51680;49.806;18.774;2024-02-26T00:11:44;96292.81;;;8.72;70.35
41044;BME280;51680;49.806;18.774;2024-02-26T00:14:47;96297.06;;;8.73;69.99
41044;BME280;51680;49.806;18.774;2024-02-26T00:17:50;96302.47;;;8.70;70.19
41044;BME280;51680;49.806;18.774;2024-02-26T00:20:52;96311.22;;;8.69;70.16
41044;BME280;51680;49.806;18.774;2024-02-26T00:23:54;96300.16;;;8.78;69.79
41044;BME280;51680;49.806;18.774;2024-02-26T00:26:56;96310.44;;;8.80;69.85
41044;BME280;51680;49.806;18.774;2024-02-26T00:29:59;96312.22;;;8.79;69.86
41044;BME280;51680;49.806;18.774;2024-02-26T00:33:01;96314.69;;;8.81;69.87
41044;BME280;51680;49.806;18.774;2024-02-26T00:36:03;96313.66;;;8.83;70.16
41044;BME280;51680;49.806;18.774;2024-02-26T00:39:05;96304.00;;;8.96;69.39
41044;BME280;51680;49.806;18.774;2024-02-26T00:42:07;96302.72;;;9.13;68.86
41044;BME280;51680;49.806;18.774;2024-02-26T00:45:11;96302.09;;;9.09;69.23
41044;BME280;51680;49.806;18.774;2024-02-26T00:48:12;96301.03;;;9.01;69.25
41044;BME280;51680;49.806;18.774;2024-02-26T00:51:14;96303.41;;;9.15;68.18
41044;BME280;51680;49.806;18.774;2024-02-26T00:54:16;96308.88;;;9.23;68.03
41044;BME280;51680;49.806;18.774;2024-02-26T00:57:18;96303.31;;;9.27;67.66
41044;BME280;51680;49.806;18.774;2024-02-26T01:00:22;96307.59;;;9.39;67.25
41044;BME280;51680;49.806;18.774;2024-02-26T01:03:23;96303.81;;;9.43;67.01
41044;BME280;51680;49.806;18.774;2024-02-26T01:06:25;96301.22;;;9.43;67.25
41044;BME280;51680;49.806;18.774;2024-02-26T01:09:27;96308.28;;;9.52;66.76
41044;BME280;51680;49.806;18.774;2024-02-26T01:12:29;96304.78;;;9.53;66.75
41044;BME280;51680;49.806;18.774;2024-02-26T01:15:32;96310.56;;;9.57;66.37
41044;BME280;51680;49.806;18.774;2024-02-26T01:18:34;96302.28;;;9.63;66.63
41044;BME280;51680;49.806;18.774;2024-02-26T01:21:36;96307.13;;;9.67;66.56
41044;BME280;51680;49.806;18.774;2024-02-26T01:24:38;96303.59;;;9.68;66.29
41044;BME280;51680;49.806;18.774;2024-02-26T01:27:40;96299.09;;;9.48;67.12
41044;BME280;51680;49.806;18.774;2024-02-26T01:30:44;96301.88;;;9.23;67.87
41044;BME280;51680;49.806;18.774;2024-02-26T01:33:46;96301.28;;;9.09;68.23
41044;BME280;51680;49.806;18.774;2024-02-26T01:36:48;96286.00;;;9.04;68.29
41044;BME280;51680;49.806;18.774;2024-02-26T01:39:50;96290.28;;;9.05;68.14
41044;BME280;51680;49.806;18.774;2024-02-26T01:42:52;96288.41;;;9.18;67.41
41044;BME280;51680;49.806;18.774;2024-02-26T01:45:55;96281.31;;;9.20;67.68
41044;BME280;51680;49.806;18.774;2024-02-26T01:48:57;96285.41;;;9.01;68.45
41044;BME280;51680;49.806;18.774;2024-02-26T01:51:59;96287.78;;;8.93;68.67
41044;BME280;51680;49.806;18.774;2024-02-26T01:55:01;96280.66;;;8.84;69.02
41044;BME280;51680;49.806;18.774;2024-02-26T01:58:05;96274.53;;;8.61;69.81
41044;BME280;51680;49.806;18.774;2024-02-26T02:01:08;96278.78;;;8.51;70.52
41044;BME280;51680;49.806;18.774;2024-02-26T02:04:10;96267.66;;;8.49;69.69
41044;BME280;51680;49.806;18.774;2024-02-26T02:07:12;96275.69;;;8.46;70.23
41044;BME280;51680;49.806;18.774;2024-02-26T02:10:15;96272.88;;;8.49;70.11
41044;BME280;51680;49.806;18.774;2024-02-26T02:13:18;96270.97;;;8.51;70.00
41044;BME280;51680;49.806;18.774;2024-02-26T02:16:21;96260.84;;;8.59;70.33
41044;BME280;51680;49.806;18.774;2024-02-26T02:19:23;96267.31;;;8.54;70.00
41044;BME280;51680;49.806;18.774;2024-02-26T02:22:27;96262.94;;;8.54;70.18
41044;BME280;51680;49.806;18.774;2024-02-26T02:25:29;96264.56;;;8.44;70.93
41044;BME280;51680;49.806;18.774;2024-02-26T02:28:31;96269.78;;;8.44;70.63
41044;BME280;51680;49.806;18.774;2024-02-26T02:31:33;96269.28;;;8.39;70.85
41044;BME280;51680;49.806;18.774;2024-02-26T02:34:35;96274.38;;;8.41;71.22
41044;BME280;51680;49.806;18.774;2024-02-26T02:37:38;96263.63;;;8.45;70.80
41044;BME280;51680;49.806;18.774;2024-02-26T02:40:41;96273.13;;;8.57;70.45
41044;BME280;51680;49.806;18.774;2024-02-26T02:43:42;96277.16;;;8.61;70.67
41044;BME280;51680;49.806;18.774;2024-02-26T02:46:44;96277.97;;;8.51;71.19
41044;BME280;51680;49.806;18.774;2024-02-26T02:49:46;96272.41;;;8.55;71.17
41044;BME280;51680;49.806;18.774;2024-02-26T02:52:49;96261.31;;;8.64;70.79
41044;BME280;51680;49.806;18.774;2024-02-26T02:55:51;96270.22;;;8.73;70.53
41044;BME280;51680;49.806;18.774;2024-02-26T02:58:53;96272.72;;;8.85;69.76
41044;BME280;51680;49.806;18.774;2024-02-26T03:01:55;96263.16;;;8.97;69.15
41044;BME280;51680;49.806;18.774;2024-02-26T03:04:57;96267.34;;;9.10;68.66
41044;BME280;51680;49.806;18.774;2024-02-26T03:08:00;96273.63;;;9.19;68.57
41044;BME280;51680;49.806;18.774;2024-02-26T03:11:02;96262.84;;;9.23;68.47
41044;BME280;51680;49.806;18.774;2024-02-26T03:14:04;96265.22;;;9.26;68.35
41044;BME280;51680;49.806;18.774;2024-02-26T03:17:06;96249.72;;;9.36;68.08
41044;BME280;51680;49.806;18.774;2024-02-26T03:20:09;96261.91;;;9.46;67.96
41044;BME280;51680;49.806;18.774;2024-02-26T03:23:12;96251.59;;;9.45;67.70
41044;BME280;51680;49.806;18.774;2024-02-26T03:26:16;96250.75;;;9.55;67.41
41044;BME280;51680;49.806;18.774;2024-02-26T03:29:18;96241.78;;;9.59;67.30
41044;BME280;51680;49.806;18.774;2024-02-26T03:32:20;96238.78;;;9.64;66.97
41044;BME280;51680;49.806;18.774;2024-02-26T03:35:22;96236.06;;;9.65;66.94
41044;BME280;51680;49.806;18.774;2024-02-26T03:38:25;96232.78;;;9.63;66.88
41044;BME280;51680;49.806;18.774;2024-02-26T03:41:27;96231.94;;;9.63;66.92
41044;BME280;51680;49.806;18.774;2024-02-26T03:44:29;96231.13;;;9.62;66.93
41044;BME280;51680;49.806;18.774;2024-02-26T03:47:31;96214.53;;;9.52;67.09
41044;BME280;51680;49.806;18.774;2024-02-26T03:50:33;96227.09;;;9.47;66.75
41044;BME280;51680;49.806;18.774;2024-02-26T03:53:36;96215.38;;;9.31;67.12
41044;BME280;51680;49.806;18.774;2024-02-26T03:56:38;96214.31;;;9.22;67.23
41044;BME280;51680;49.806;18.774;2024-02-26T03:59:40;96211.97;;;9.19;67.36
41044;BME280;51680;49.806;18.774;2024-02-26T04:02:42;96209.69;;;9.26;67.18
41044;BME280;51680;49.806;18.774;2024-02-26T04:05:43;96202.25;;;9.21;67.08
41044;BME280;51680;49.806;18.774;2024-02-26T04:08:47;96205.78;;;9.09;67.34
41044;BME280;51680;49.806;18.774;2024-02-26T04:11:49;96200.00;;;9.06;67.57
41044;BME280;51680;49.806;18.774;2024-02-26T04:14:51;96205.69;;;9.00;67.58
41044;BME280;51680;49.806;18.774;2024-02-26T04:17:52;96203.31;;;8.97;67.60
41044;BME280;51680;49.806;18.774;2024-02-26T04:20:55;96204.72;;;8.90;67.61
41044;BME280;51680;49.806;18.774;2024-02-26T04:23:58;96202.47;;;8.85;68.04
41044;BME280;51680;49.806;18.774;2024-02-26T04:27:02;96187.81;;;9.06;66.90
41044;BME280;51680;49.806;18.774;2024-02-26T04:30:05;96195.97;;;9.24;66.12
41044;BME280;51680;49.806;18.774;2024-02-26T04:33:07;96198.94;;;9.08;66.63
41044;BME280;51680;49.806;18.774;2024-02-26T04:36:13;96181.31;;;9.23;65.45
41044;BME280;51680;49.806;18.774;2024-02-26T04:39:16;96188.03;;;9.36;65.19
41044;BME280;51680;49.806;18.774;2024-02-26T04:42:18;96179.75;;;9.31;65.24
41044;BME280;51680;49.806;18.774;2024-02-26T04:45:20;96183.22;;;9.32;65.32
41044;BME280;51680;49.806;18.774;2024-02-26T04:48:22;96183.69;;;9.15;65.87
41044;BME280;51680;49.806;18.774;2024-02-26T04:51:24;96180.59;;;9.21;65.32
41044;BME280;51680;49.806;18.774;2024-02-26T04:54:46;96185.00;;;9.20;65.19
41044;BME280;51680;49.806;18.774;2024-02-26T04:57:48;96185.19;;;9.28;64.91
41044;BME280;51680;49.806;18.774;2024-02-26T05:00:49;96182.47;;;9.30;64.85
41044;BME280;51680;49.806;18.774;2024-02-26T05:03:51;96189.09;;;9.45;64.62
41044;BME280;51680;49.806;18.774;2024-02-26T05:06:53;96186.03;;;9.51;64.62
41044;BME280;51680;49.806;18.774;2024-02-26T05:09:56;96187.56;;;9.53;64.76
41044;BME280;51680;49.806;18.774;2024-02-26T05:12:59;96190.84;;;9.55;64.29
41044;BME280;51680;49.806;18.774;2024-02-26T05:16:00;96186.34;;;9.57;64.52
41044;BME280;51680;49.806;18.774;2024-02-26T05:19:03;96192.16;;;9.61;64.62
41044;BME280;51680;49.806;18.774;2024-02-26T05:22:06;96193.22;;;9.58;64.61
41044;BME280;51680;49.806;18.774;2024-02-26T05:25:09;96196.91;;;9.56;64.27
41044;BME280;51680;49.806;18.774;2024-02-26T05:28:11;96201.97;;;9.57;64.75
41044;BME280;51680;49.806;18.774;2024-02-26T05:31:13;96196.53;;;9.60;64.64
41044;BME280;51680;49.806;18.774;2024-02-26T05:34:15;96200.31;;;9.56;64.81
41044;BME280;51680;49.806;18.774;2024-02-26T05:37:17;96196.75;;;9.57;64.48
41044;BME280;51680;49.806;18.774;2024-02-26T05:40:20;96201.84;;;9.59;64.14
41044;BME280;51680;49.806;18.774;2024-02-26T05:43:41;96197.94;;;9.64;64.24
41044;BME280;51680;49.806;18.774;2024-02-26T05:46:43;96200.78;;;9.72;64.37
41044;BME280;51680;49.806;18.774;2024-02-26T05:49:45;96177.06;;;9.86;63.78
41044;BME280;51680;49.806;18.774;2024-02-26T05:52:46;96188.28;;;10.50;62.61
41044;BME280;51680;49.806;18.774;2024-02-26T05:55:50;96183.88;;;11.21;60.52
41044;BME280;51680;49.806;18.774;2024-02-26T05:58:52;96189.69;;;11.64;58.99
41044;BME280;51680;49.806;18.774;2024-02-26T06:02:13;96194.03;;;11.54;59.19
41044;BME280;51680;49.806;18.774;2024-02-26T06:05:15;96188.66;;;12.62;57.16
41044;BME280;51680;49.806;18.774;2024-02-26T06:08:17;96191.47;;;13.97;54.77
41044;BME280;51680;49.806;18.774;2024-02-26T06:11:20;96183.09;;;14.63;52.00
41044;BME280;51680;49.806;18.774;2024-02-26T06:14:23;96187.63;;;15.47;50.41
41044;BME280;51680;49.806;18.774;2024-02-26T06:17:25;96180.50;;;15.81;49.54
41044;BME280;51680;49.806;18.774;2024-02-26T06:20:27;96186.97;;;15.95;49.19
41044;BME280;51680;49.806;18.774;2024-02-26T06:23:29;96193.06;;;15.54;49.11
41044;BME280;51680;49.806;18.774;2024-02-26T06:26:32;96211.13;;;15.23;48.79
41044;BME280;51680;49.806;18.774;2024-02-26T06:29:34;96209.63;;;15.21;49.85
41044;BME280;51680;49.806;18.774;2024-02-26T06:32:36;96208.50;;;15.31;49.78
41044;BME280;51680;49.806;18.774;2024-02-26T06:35:38;96213.34;;;15.69;49.58
41044;BME280;51680;49.806;18.774;2024-02-26T06:38:40;96208.91;;;16.03;48.62
41044;BME280;51680;49.806;18.774;2024-02-26T06:41:43;96212.31;;;16.77;47.22
41044;BME280;51680;49.806;18.774;2024-02-26T06:44:47;96216.53;;;17.58;45.94
41044;BME280;51680;49.806;18.774;2024-02-26T06:47:49;96226.75;;;16.41;46.69
41044;BME280;51680;49.806;18.774;2024-02-26T06:50:50;96219.03;;;15.90;48.49
41044;BME280;51680;49.806;18.774;2024-02-26T06:53:52;96226.88;;;15.23;49.77
41044;BME280;51680;49.806;18.774;2024-02-26T06:56:56;96222.81;;;14.86;50.75
41044;BME280;51680;49.806;18.774;2024-02-26T06:59:57;96233.84;;;14.19;51.44
41044;BME280;51680;49.806;18.774;2024-02-26T07:02:59;96232.81;;;14.12;52.43
41044;BME280;51680;49.806;18.774;2024-02-26T07:06:02;96231.94;;;13.94;53.11
41044;BME280;51680;49.806;18.774;2024-02-26T07:09:04;96221.25;;;13.51;54.13
41044;BME280;51680;49.806;18.774;2024-02-26T07:12:08;96221.53;;;13.48;54.13
41044;BME280;51680;49.806;18.774;2024-02-26T07:15:10;96233.44;;;13.43;54.66
41044;BME280;51680;49.806;18.774;2024-02-26T07:18:12;96233.38;;;13.06;55.59
41044;BME280;51680;49.806;18.774;2024-02-26T07:21:14;96237.94;;;13.14;55.46
41044;BME280;51680;49.806;18.774;2024-02-26T07:24:16;96231.00;;;13.22;55.54
41044;BME280;51680;49.806;18.774;2024-02-26T07:27:19;96239.72;;;13.13;55.77
41044;BME280;51680;49.806;18.774;2024-02-26T07:30:22;96231.00;;;13.22;55.63
41044;BME280;51680;49.806;18.774;2024-02-26T07:33:25;96220.22;;;13.35;55.28
41044;BME280;51680;49.806;18.774;2024-02-26T07:36:27;96222.44;;;13.30;55.43
41044;BME280;51680;49.806;18.774;2024-02-26T07:39:28;96226.25;;;13.35;55.05
41044;BME280;51680;49.806;18.774;2024-02-26T07:42:32;96220.28;;;13.06;54.68
41044;BME280;51680;49.806;18.774;2024-02-26T07:45:33;96229.13;;;12.96;55.97
41044;BME280;51680;49.806;18.774;2024-02-26T07:48:37;96232.53;;;13.15;55.34
41044;BME280;51680;49.806;18.774;2024-02-26T07:51:38;96233.28;;;13.44;55.48
41044;BME280;51680;49.806;18.774;2024-02-26T07:54:40;96232.72;;;13.77;54.70
41044;BME280;51680;49.806;18.774;2024-02-26T07:57:43;96234.66;;;13.75;54.60
41044;BME280;51680;49.806;18.774;2024-02-26T08:00:45;96241.75;;;13.92;54.81
41044;BME280;51680;49.806;18.774;2024-02-26T08:03:47;96239.69;;;14.13;54.68
41044;BME280;51680;49.806;18.774;2024-02-26T08:06:49;96245.00;;;14.31;54.29
41044;BME280;51680;49.806;18.774;2024-02-26T08:09:51;96236.09;;;14.41;53.70
41044;BME280;51680;49.806;18.774;2024-02-26T08:12:54;96242.22;;;14.50;53.29
41044;BME280;51680;49.806;18.774;2024-02-26T08:15:57;96241.19;;;14.60;52.85
41044;BME280;51680;49.806;18.774;2024-02-26T08:18:59;96238.78;;;14.84;52.51
41044;BME280;51680;49.806;18.774;2024-02-26T08:22:01;96242.72;;;15.06;52.06
41044;BME280;51680;49.806;18.774;2024-02-26T08:25:03;96239.25;;;15.31;51.12
41044;BME280;51680;49.806;18.774;2024-02-26T08:28:08;96244.19;;;15.51;50.47
41044;BME280;51680;49.806;18.774;2024-02-26T08:31:11;96239.63;;;15.61;50.56
41044;BME280;51680;49.806;18.774;2024-02-26T08:34:14;96242.28;;;15.69;50.39
41044;BME280;51680;49.806;18.774;2024-02-26T08:37:15;96234.09;;;15.72;50.14
41044;BME280;51680;49.806;18.774;2024-02-26T08:40:17;96237.59;;;16.38;49.21
41044;BME280;51680;49.806;18.774;2024-02-26T08:43:21;96231.88;;;17.47;47.39
41044;BME280;51680;49.806;18.774;2024-02-26T08:46:23;96240.28;;;17.97;46.83
41044;BME280;51680;49.806;18.774;2024-02-26T08:49:25;96237.03;;;18.25;46.32
41044;BME280;51680;49.806;18.774;2024-02-26T08:52:27;96235.22;;;18.26;45.90
41044;BME280;51680;49.806;18.774;2024-02-26T08:55:28;96245.88;;;17.55;46.63
41044;BME280;51680;49.806;18.774;2024-02-26T08:58:32;96245.94;;;17.23;47.44
41044;BME280;51680;49.806;18.774;2024-02-26T09:01:33;96252.34;;;17.21;48.33
41044;BME280;51680;49.806;18.774;2024-02-26T09:04:35;96247.41;;;17.18;47.82
41044;BME280;51680;49.806;18.774;2024-02-26T09:07:37;96256.66;;;16.98;48.61
41044;BME280;51680;49.806;18.774;2024-02-26T09:10:39;96258.75;;;16.54;49.40
41044;BME280;51680;49.806;18.774;2024-02-26T09:13:42;96268.16;;;16.15;49.85
41044;BME280;51680;49.806;18.774;2024-02-26T09:16:44;96257.72;;;15.13;51.82
41044;BME280;51680;49.806;18.774;2024-02-26T09:19:46;96255.88;;;14.71;53.20
41044;BME280;51680;49.806;18.774;2024-02-26T09:22:48;96281.97;;;14.20;54.42
41044;BME280;51680;49.806;18.774;2024-02-26T09:25:51;96272.03;;;13.87;55.40
41044;BME280;51680;49.806;18.774;2024-02-26T09:28:54;96269.44;;;13.77;56.19
41044;BME280;51680;49.806;18.774;2024-02-26T09:31:56;96268.88;;;13.83;56.18
41044;BME280;51680;49.806;18.774;2024-02-26T09:34:57;96260.22;;;14.00;55.90
41044;BME280;51680;49.806;18.774;2024-02-26T09:38:00;96260.25;;;14.18;55.78
41044;BME280;51680;49.806;18.774;2024-02-26T09:41:02;96258.78;;;14.33;55.31
41044;BME280;51680;49.806;18.774;2024-02-26T09:44:05;96247.72;;;14.56;55.41
41044;BME280;51680;49.806;18.774;2024-02-26T09:47:09;96253.78;;;14.74;55.07
41044;BME280;51680;49.806;18.774;2024-02-26T09:50:12;96255.59;;;15.34;54.41
41044;BME280;51680;49.806;18.774;2024-02-26T09:53:16;96247.09;;;15.74;53.22
41044;BME280;51680;49.806;18.774;2024-02-26T09:56:18;96246.00;;;15.92;52.67
41044;BME280;51680;49.806;18.774;2024-02-26T09:59:22;96255.09;;;15.98;53.24
41044;BME280;51680;49.806;18.774;2024-02-26T10:02:24;96250.69;;;16.56;52.80
41044;BME280;51680;49.806;18.774;2024-02-26T10:05:26;96246.91;;;16.98;51.86
41044;BME280;51680;49.806;18.774;2024-02-26T10:08:29;96248.41;;;17.17;51.36
41044;BME280;51680;49.806;18.774;2024-02-26T10:11:32;96247.91;;;17.05;51.96
41044;BME280;51680;49.806;18.774;2024-02-26T10:14:35;96253.81;;;17.07;52.28
41044;BME280;51680;49.806;18.774;2024-02-26T10:17:38;96250.69;;;16.72;52.89
41044;BME280;51680;49.806;18.774;2024-02-26T10:20:41;96260.03;;;16.42;54.17
41044;BME280;51680;49.806;18.774;2024-02-26T10:23:42;96253.72;;;16.27;54.47
41044;BME280;51680;49.806;18.774;2024-02-26T10:26:45;96254.59;;;16.02;55.27
41044;BME280;51680;49.806;18.774;2024-02-26T10:29:50;96253.56;;;15.87;55.76
41044;BME280;51680;49.806;18.774;2024-02-26T10:32:52;96267.22;;;15.83;56.54
41044;BME280;51680;49.806;18.774;2024-02-26T10:35:54;96263.31;;;15.61;56.78
41044;BME280;51680;49.806;18.774;2024-02-26T10:38:56;96260.41;;;15.39;58.00
41044;BME280;51680;49.806;18.774;2024-02-26T10:41:59;96268.63;;;15.26;58.22
41044;BME280;51680;49.806;18.774;2024-02-26T10:45:08;96264.31;;;15.17;58.29
41044;BME280;51680;49.806;18.774;2024-02-26T10:48:13;96264.91;;;15.11;59.18
41044;BME280;51680;49.806;18.774;2024-02-26T10:51:15;96253.03;;;15.07;59.19
41044;BME280;51680;49.806;18.774;2024-02-26T10:54:18;96253.31;;;15.39;58.80
41044;BME280;51680;49.806;18.774;2024-02-26T10:57:21;96260.03;;;15.16;59.33
41044;BME280;51680;49.806;18.774;2024-02-26T11:00:26;96245.09;;;15.17;59.25
41044;BME280;51680;49.806;18.774;2024-02-26T11:03:29;96250.41;;;15.07;59.16
41044;BME280;51680;49.806;18.774;2024-02-26T11:06:35;96244.44;;;14.97;60.05
41044;BME280;51680;49.806;18.774;2024-02-26T11:09:37;96228.44;;;15.08;59.39
41044;BME280;51680;49.806;18.774;2024-02-26T11:12:45;96240.03;;;15.23;59.36
41044;BME280;51680;49.806;18.774;2024-02-26T11:15:50;96237.63;;;15.12;59.81
41044;BME280;51680;49.806;18.774;2024-02-26T11:18:55;96243.47;;;14.98;59.82
41044;BME280;51680;49.806;18.774;2024-02-26T11:21:59;96240.38;;;15.03;58.84
41044;BME280;51680;49.806;18.774;2024-02-26T11:25:02;96236.34;;;15.16;58.85
41044;BME280;51680;49.806;18.774;2024-02-26T11:28:06;96237.50;;;15.14;59.25
41044;BME280;51680;49.806;18.774;2024-02-26T11:31:12;96249.25;;;15.45;59.36
41044;BME280;51680;49.806;18.774;2024-02-26T11:34:14;96233.50;;;15.53;58.35
41044;BME280;51680;49.806;18.774;2024-02-26T11:37:17;96227.72;;;15.49;57.94
41044;BME280;51680;49.806;18.774;2024-02-26T11:40:19;96231.47;;;15.72;57.69
41044;BME280;51680;49.806;18.774;2024-02-26T11:43:23;96239.59;;;15.53;58.11
41044;BME280;51680;49.806;18.774;2024-02-26T11:46:28;96228.91;;;15.96;57.35
41044;BME280;51680;49.806;18.774;2024-02-26T11:49:31;96231.16;;;15.83;57.28
41044;BME280;51680;49.806;18.774;2024-02-26T11:52:33;96224.00;;;16.01;56.93
41044;BME280;51680;49.806;18.774;2024-02-26T11:55:35;96220.06;;;16.05;56.55
41044;BME280;51680;49.806;18.774;2024-02-26T11:58:39;96235.28;;;15.86;56.91
41044;BME280;51680;49.806;18.774;2024-02-26T12:01:46;96231.88;;;15.93;57.03
41044;BME280;51680;49.806;18.774;2024-02-26T12:04:49;96235.00;;;15.89;57.33
41044;BME280;51680;49.806;18.774;2024-02-26T12:07:53;96230.94;;;16.10;56.64
41044;BME280;51680;49.806;18.774;2024-02-26T12:10:55;96219.31;;;16.21;57.17
41044;BME280;51680;49.806;18.774;2024-02-26T12:13:58;96227.03;;;16.30;56.95
41044;BME280;51680;49.806;18.774;2024-02-26T12:17:01;96223.72;;;16.20;56.75
41044;BME280;51680;49.806;18.774;2024-02-26T12:20:11;96228.50;;;16.25;56.83
41044;BME280;51680;49.806;18.774;2024-02-26T12:23:15;96232.28;;;16.14;56.28
41044;BME280;51680;49.806;18.774;2024-02-26T12:26:17;96235.28;;;16.27;56.76
41044;BME280;51680;49.806;18.774;2024-02-26T12:29:20;96224.91;;;16.34;56.62
41044;BME280;51680;49.806;18.774;2024-02-26T12:32:23;96231.44;;;16.06;56.47
41044;BME280;51680;49.806;18.774;2024-02-26T12:35:25;96228.16;;;16.20;56.44
41044;BME280;51680;49.806;18.774;2024-02-26T12:38:28;96227.88;;;16.31;56.39
41044;BME280;51680;49.806;18.774;2024-02-26T12:41:30;96235.22;;;16.03;56.07
41044;BME280;51680;49.806;18.774;2024-02-26T12:44:32;96226.59;;;15.93;56.56
41044;BME280;51680;49.806;18.774;2024-02-26T12:47:37;96236.88;;;16.12;56.46
41044;BME280;51680;49.806;18.774;2024-02-26T12:50:39;96234.91;;;16.14;56.71
41044;BME280;51680;49.806;18.774;2024-02-26T12:53:41;96238.00;;;16.02;57.17
41044;BME280;51680;49.806;18.774;2024-02-26T12:56:44;96237.84;;;16.03;57.04
41044;BME280;51680;49.806;18.774;2024-02-26T12:59:46;96231.09;;;16.09;56.91
41044;BME280;51680;49.806;18.774;2024-02-26T13:02:50;96231.47;;;16.22;57.14
41044;BME280;51680;49.806;18.774;2024-02-26T13:05:52;96234.84;;;16.40;56.77
41044;BME280;51680;49.806;18.774;2024-02-26T13:08:56;96226.41;;;16.28;56.51
41044;BME280;51680;49.806;18.774;2024-02-26T13:11:59;96232.34;;;15.89;56.90
41044;BME280;51680;49.806;18.774;2024-02-26T13:15:02;96227.25;;;15.87;57.16
41044;BME280;51680;49.806;18.774;2024-02-26T13:18:11;96228.31;;;15.69;57.68
41044;BME280;51680;49.806;18.774;2024-02-26T13:21:14;96237.78;;;15.87;57.47
41044;BME280;51680;49.806;18.774;2024-02-26T13:24:17;96227.69;;;15.75;57.23
41044;BME280;51680;49.806;18.774;2024-02-26T13:27:21;96227.19;;;15.71;57.75
41044;BME280;51680;49.806;18.774;2024-02-26T13:30:23;96231.34;;;15.48;58.12
41044;BME280;51680;49.806;18.774;2024-02-26T13:33:27;96235.88;;;15.38;57.44
41044;BME280;51680;49.806;18.774;2024-02-26T13:36:30;96230.72;;;15.54;57.64
41044;BME280;51680;49.806;18.774;2024-02-26T13:39:32;96227.88;;;15.22;58.17
41044;BME280;51680;49.806;18.774;2024-02-26T13:42:34;96234.59;;;15.42;58.25
41044;BME280;51680;49.806;18.774;2024-02-26T13:45:37;96226.38;;;15.45;58.21
41044;BME280;51680;49.806;18.774;2024-02-26T13:48:40;96226.38;;;15.45;58.14
41044;BME280;51680;49.806;18.774;2024-02-26T13:51:42;96225.09;;;15.49;58.35
41044;BME280;51680;49.806;18.774;2024-02-26T13:54:44;96227.41;;;15.27;58.66
41044;BME280;51680;49.806;18.774;2024-02-26T13:58:05;96229.75;;;15.12;58.87
41044;BME280;51680;49.806;18.774;2024-02-26T14:01:07;96217.09;;;15.08;58.81
41044;BME280;51680;49.806;18.774;2024-02-26T14:04:10;96234.34;;;15.10;58.91
41044;BME280;51680;49.806;18.774;2024-02-26T14:07:13;96234.00;;;15.05;59.48
41044;BME280;51680;49.806;18.774;2024-02-26T14:10:36;96231.00;;;15.00;59.44
41044;BME280;51680;49.806;18.774;2024-02-26T14:13:38;96237.69;;;14.95;59.67
41044;BME280;51680;49.806;18.774;2024-02-26T14:16:40;96234.88;;;15.14;59.08
41044;BME280;51680;49.806;18.774;2024-02-26T14:19:43;96236.22;;;15.18;59.14
41044;BME280;51680;49.806;18.774;2024-02-26T14:22:45;96234.16;;;15.29;58.92
41044;BME280;51680;49.806;18.774;2024-02-26T14:25:47;96234.31;;;15.28;59.28
41044;BME280;51680;49.806;18.774;2024-02-26T14:28:49;96240.00;;;15.41;58.83
41044;BME280;51680;49.806;18.774;2024-02-26T14:31:51;96235.72;;;15.65;58.50
41044;BME280;51680;49.806;18.774;2024-02-26T14:34:56;96245.34;;;15.57;58.34
41044;BME280;51680;49.806;18.774;2024-02-26T14:37:58;96236.06;;;15.70;58.11
41044;BME280;51680;49.806;18.774;2024-02-26T14:41:02;96236.09;;;15.78;57.94
41044;BME280;51680;49.806;18.774;2024-02-26T14:44:04;96237.41;;;15.23;58.56
41044;BME280;51680;49.806;18.774;2024-02-26T14:47:06;96256.16;;;15.03;59.68
41044;BME280;51680;49.806;18.774;2024-02-26T14:50:10;96252.31;;;14.97;59.66
41044;BME280;51680;49.806;18.774;2024-02-26T14:53:12;96245.16;;;14.64;60.54
41044;BME280;51680;49.806;18.774;2024-02-26T14:56:14;96244.03;;;14.84;60.27
41044;BME280;51680;49.806;18.774;2024-02-26T14:59:16;96253.25;;;14.71;60.22
41044;BME280;51680;49.806;18.774;2024-02-26T15:02:18;96242.94;;;14.95;60.12
41044;BME280;51680;49.806;18.774;2024-02-26T15:05:40;96248.94;;;15.05;59.86
41044;BME280;51680;49.806;18.774;2024-02-26T15:08:42;96257.69;;;14.88;60.14
41044;BME280;51680;49.806;18.774;2024-02-26T15:11:44;96261.56;;;14.84;60.15
41044;BME280;51680;49.806;18.774;2024-02-26T15:14:46;96261.56;;;15.01;60.20
41044;BME280;51680;49.806;18.774;2024-02-26T15:17:48;96245.78;;;15.01;60.22
41044;BME280;51680;49.806;18.774;2024-02-26T15:20:53;96252.47;;;15.13;59.50
41044;BME280;51680;49.806;18.774;2024-02-26T15:23:55;96264.88;;;14.86;59.78
41044;BME280;51680;49.806;18.774;2024-02-26T15:26:56;96263.44;;;14.91;59.70
41044;BME280;51680;49.806;18.774;2024-02-26T15:29:58;96266.44;;;14.96;59.71
41044;BME280;51680;49.806;18.774;2024-02-26T15:33:00;96265.25;;;15.08;59.72
41044;BME280;51680;49.806;18.774;2024-02-26T15:36:04;96263.06;;;14.86;59.90
41044;BME280;51680;49.806;18.774;2024-02-26T15:39:10;96272.09;;;14.84;60.10
41044;BME280;51680;49.806;18.774;2024-02-26T15:42:12;96274.69;;;15.01;59.92
41044;BME280;51680;49.806;18.774;2024-02-26T15:45:15;96271.44;;;15.07;60.04
41044;BME280;51680;49.806;18.774;2024-02-26T15:48:16;96275.72;;;15.26;59.41
41044;BME280;51680;49.806;18.774;2024-02-26T15:51:20;96280.13;;;15.25;59.50
41044;BME280;51680;49.806;18.774;2024-02-26T15:54:22;96289.78;;;15.17;59.59
41044;BME280;51680;49.806;18.774;2024-02-26T15:57:24;96283.25;;;15.21;59.69
41044;BME280;51680;49.806;18.774;2024-02-26T16:00:26;96284.75;;;15.23;59.75